Time;durP1;ratioP1;P1;durP2;ratioP2;P2;SDS_P1;SDS_P2;PMS_P1;PMS_P2;Temp;Humidity;BMP_temperature;BMP_pressure;BME280_temperature;BME280_humidity;BME280_pressure;Samples;Min_cycle;Max_cycle;Signal;HPM_P1;HPM_P2
2021/03/16 00:01:00;;;;;;;4.72;2.53;;;4.50;99.90;;;;;;5050331;28;20090;-64
2021/03/16 00:03:44;;;;;;;3.20;2.33;;;4.50;99.90;;;;;;5056095;28;20055;-64
2021/03/16 00:06:20;;;;;;;3.33;2.22;;;4.50;99.90;;;;;;5054954;28;20361;-64
2021/03/16 00:08:46;;;;;;;5.88;2.90;;;4.40;99.90;;;;;;5057635;28;20242;-64
2021/03/16 00:11:11;;;;;;;4.20;2.50;;;4.40;99.90;;;;;;5058686;28;20465;-63
2021/03/16 00:13:37;;;;;;;5.35;2.63;;;4.40;99.90;;;;;;5058303;28;20072;-63
2021/03/16 00:16:03;;;;;;;4.47;3.15;;;4.40;99.90;;;;;;5057125;28;20036;-63
2021/03/16 00:18:29;;;;;;;6.47;3.22;;;4.30;99.90;;;;;;5056601;28;20025;-63
2021/03/16 00:20:54;;;;;;;6.22;2.90;;;4.40;99.90;;;;;;5056698;28;20075;-63
2021/03/16 00:23:20;;;;;;;9.27;3.65;;;4.40;99.90;;;;;;5054232;28;20086;-63
2021/03/16 00:25:46;;;;;;;8.60;3.92;;;4.40;99.90;;;;;;5055906;28;20037;-64
2021/03/16 00:28:11;;;;;;;8.75;4.82;;;4.40;99.90;;;;;;5057191;28;20453;-64
2021/03/16 00:30:37;;;;;;;8.88;4.65;;;4.40;99.90;;;;;;5054311;28;20512;-63
2021/03/16 00:33:03;;;;;;;11.05;4.63;;;4.40;99.90;;;;;;5054959;28;20040;-64
2021/03/16 00:35:29;;;;;;;8.93;4.68;;;4.40;99.90;;;;;;5055812;28;20063;-63
2021/03/16 00:37:55;;;;;;;8.60;5.22;;;4.30;99.90;;;;;;5056146;28;20143;-63
2021/03/16 00:40:21;;;;;;;11.50;4.75;;;4.40;99.90;;;;;;5055711;28;20027;-63
2021/03/16 00:42:46;;;;;;;13.23;5.47;;;4.40;99.90;;;;;;5056348;28;20024;-63
2021/03/16 00:45:12;;;;;;;7.95;5.10;;;4.40;99.90;;;;;;5055400;28;20904;-63
2021/03/16 00:47:38;;;;;;;8.30;5.07;;;4.40;99.90;;;;;;5056235;28;20048;-64
2021/03/16 00:50:07;;;;;;;6.90;4.60;;;4.40;99.90;;;;;;5055942;28;20033;-65
2021/03/16 00:52:33;;;;;;;9.85;5.50;;;4.40;99.90;;;;;;5038163;28;20230;-64
2021/03/16 00:54:59;;;;;;;8.45;4.97;;;4.30;99.90;;;;;;5056120;28;20746;-64
2021/03/16 00:57:25;;;;;;;10.23;4.70;;;4.40;99.90;;;;;;5054712;28;20036;-64
2021/03/16 00:59:50;;;;;;;12.60;4.72;;;4.40;99.90;;;;;;5054010;28;20032;-64
2021/03/16 01:02:18;;;;;;;9.95;4.82;;;4.40;99.90;;;;;;5053605;28;20029;-64
2021/03/16 01:04:44;;;;;;;7.45;4.00;;;4.40;99.90;;;;;;5053882;28;20100;-64
2021/03/16 01:07:10;;;;;;;11.32;4.03;;;4.50;99.90;;;;;;5053616;28;20103;-64
2021/03/16 01:09:36;;;;;;;7.55;4.40;;;4.50;99.90;;;;;;5055772;28;20929;-64
2021/03/16 01:12:02;;;;;;;13.70;4.72;;;4.40;99.90;;;;;;5054146;28;20036;-64
2021/03/16 01:14:28;;;;;;;11.82;4.53;;;4.40;99.90;;;;;;5054006;28;20028;-64
2021/03/16 01:16:54;;;;;;;10.63;4.05;;;4.40;99.90;;;;;;5037277;28;20036;-64
2021/03/16 01:19:19;;;;;;;10.30;4.13;;;4.40;99.90;;;;;;5055459;28;20024;-63
2021/03/16 01:21:45;;;;;;;7.90;4.03;;;4.40;99.90;;;;;;5054601;28;20664;-63
2021/03/16 01:24:11;;;;;;;7.80;3.83;;;4.40;99.90;;;;;;5055127;28;20531;-64
2021/03/16 01:26:36;;;;;;;8.15;3.72;;;4.40;99.90;;;;;;5054874;28;20119;-66
2021/03/16 01:29:04;;;;;;;12.15;5.07;;;4.40;99.90;;;;;;5054094;28;20041;-64
2021/03/16 01:31:30;;;;;;;7.75;3.55;;;4.30;99.90;;;;;;5055206;28;20028;-64
2021/03/16 01:33:56;;;;;;;10.18;4.07;;;4.30;99.90;;;;;;5054055;28;20036;-64
2021/03/16 01:36:21;;;;;;;6.78;4.05;;;4.30;99.90;;;;;;5053995;28;20090;-64
2021/03/16 01:38:47;;;;;;;8.38;3.60;;;4.30;99.90;;;;;;5055010;28;20145;-64
2021/03/16 01:41:13;;;;;;;12.50;4.20;;;4.30;99.90;;;;;;5059257;28;20032;-64
2021/03/16 01:43:39;;;;;;;8.38;3.30;;;4.30;99.90;;;;;;5058791;28;20055;-64
2021/03/16 01:46:06;;;;;;;11.32;4.57;;;4.30;99.90;;;;;;5059390;28;20056;-64
2021/03/16 01:48:34;;;;;;;7.50;3.90;;;4.30;99.90;;;;;;5059594;28;20609;-64
2021/03/16 01:51:06;;;;;;;7.53;3.35;;;4.30;99.90;;;;;;5053440;28;20111;-64
2021/03/16 01:53:32;;;;;;;6.55;3.47;;;4.30;99.90;;;;;;5058913;28;20039;-64
2021/03/16 01:56:00;;;;;;;5.90;3.60;;;4.20;99.90;;;;;;5057989;28;20059;-64
2021/03/16 01:58:47;;;;;;;7.15;3.65;;;4.20;99.90;;;;;;5059148;28;20051;-64
2021/03/16 02:01:32;;;;;;;9.07;3.60;;;4.20;99.90;;;;;;5057963;28;20827;-64
2021/03/16 02:04:16;;;;;;;5.50;3.20;;;4.20;99.90;;;;;;5059177;28;20808;-64
2021/03/16 02:07:12;;;;;;;7.75;3.47;;;4.30;99.90;;;;;;5058704;28;20254;-64
2021/03/16 02:10:16;;;;;;;6.15;3.50;;;4.20;99.90;;;;;;5059634;28;20050;-64
2021/03/16 02:13:09;;;;;;;5.63;3.50;;;4.20;99.90;;;;;;5058701;28;20922;-64
2021/03/16 02:15:58;;;;;;;6.05;3.55;;;4.20;99.90;;;;;;5058726;28;20083;-64
2021/03/16 02:18:51;;;;;;;7.75;3.67;;;4.20;99.90;;;;;;5057797;28;20464;-64
2021/03/16 02:21:37;;;;;;;7.45;3.10;;;4.20;99.90;;;;;;5059353;28;20047;-64
2021/03/16 02:24:38;;;;;;;6.35;3.28;;;4.10;99.90;;;;;;5060321;28;20047;-64
2021/03/16 02:27:30;;;;;;;5.65;2.65;;;4.20;99.90;;;;;;5059901;28;20094;-64
2021/03/16 02:30:16;;;;;;;8.35;3.67;;;4.20;99.90;;;;;;5058887;28;20145;-64
2021/03/16 02:33:01;;;;;;;8.10;3.40;;;4.00;99.90;;;;;;5057924;28;20083;-64
2021/03/16 02:35:47;;;;;;;;;;;4.10;99.90;;;;;;5058857;28;20043;-64
2021/03/16 02:38:37;;;;;;;6.50;2.80;;;4.10;99.90;;;;;;5058027;28;19966;-64
2021/03/16 02:41:23;;;;;;;6.57;2.70;;;4.20;99.90;;;;;;5058377;28;20747;-64
2021/03/16 02:44:08;;;;;;;8.57;3.13;;;4.10;99.90;;;;;;5057391;28;20051;-64
2021/03/16 02:46:53;;;;;;;5.82;2.80;;;4.10;99.90;;;;;;5057688;28;20747;-64
2021/03/16 02:49:40;;;;;;;6.90;3.20;;;4.00;99.90;;;;;;5058173;28;20189;-64
2021/03/16 02:52:24;;;;;;;6.65;2.85;;;4.00;99.90;;;;;;5058022;28;20135;-64
2021/03/16 02:55:10;;;;;;;6.10;3.13;;;4.00;99.90;;;;;;5043235;28;20118;-64
2021/03/16 02:57:55;;;;;;;7.35;2.65;;;4.00;99.90;;;;;;5057801;28;20264;-64
2021/03/16 03:00:40;;;;;;;11.75;3.03;;;4.00;99.90;;;;;;5058356;28;20894;-64
2021/03/16 03:03:25;;;;;;;7.38;3.17;;;3.90;99.90;;;;;;5058980;28;20197;-64
2021/03/16 03:06:13;;;;;;;7.72;3.33;;;3.90;99.90;;;;;;5058175;28;20055;-64
2021/03/16 03:08:58;;;;;;;7.70;3.00;;;3.90;99.90;;;;;;5059216;28;20139;-64
2021/03/16 03:11:42;;;;;;;6.22;3.10;;;3.90;99.90;;;;;;5058237;28;20471;-64
2021/03/16 03:14:27;;;;;;;13.07;3.00;;;3.90;99.90;;;;;;5059379;28;20090;-64
2021/03/16 03:17:11;;;;;;;4.68;2.55;;;3.90;99.90;;;;;;5058240;28;20119;-64
2021/03/16 03:19:55;;;;;;;9.18;3.25;;;4.00;99.90;;;;;;5058770;28;20098;-64
2021/03/16 03:23:08;;;;;;;7.70;2.72;;;3.90;99.90;;;;;;5058338;28;20047;-64
2021/03/16 03:26:08;;;;;;;6.57;2.38;;;3.90;99.90;;;;;;5057489;28;20043;-64
2021/03/16 03:28:54;;;;;;;7.18;2.58;;;4.00;99.90;;;;;;5058713;28;20143;-64
2021/03/16 03:31:41;;;;;;;7.60;2.80;;;3.90;99.90;;;;;;5058065;28;20458;-64
2021/03/16 03:34:27;;;;;;;8.38;2.47;;;3.90;99.90;;;;;;5057787;28;20105;-64
2021/03/16 03:37:13;;;;;;;6.18;2.42;;;3.90;99.90;;;;;;5057336;28;20055;-64
2021/03/16 03:39:58;;;;;;;9.10;2.95;;;3.90;99.90;;;;;;5058107;28;20265;-64
2021/03/16 03:42:44;;;;;;;4.40;2.15;;;3.90;99.90;;;;;;5057234;28;20047;-64
2021/03/16 03:45:29;;;;;;;8.57;2.80;;;3.90;99.90;;;;;;5041834;28;20492;-64
2021/03/16 03:48:14;;;;;;;7.55;2.80;;;3.80;99.90;;;;;;5057643;28;20178;-64
2021/03/16 03:51:00;;;;;;;12.07;3.00;;;3.90;99.90;;;;;;5057595;28;20042;-64
2021/03/16 03:53:44;;;;;;;7.45;2.45;;;3.90;99.90;;;;;;5057275;28;20129;-64
2021/03/16 03:56:31;;;;;;;7.35;2.70;;;3.80;99.90;;;;;;5056907;28;20086;-64
2021/03/16 03:59:16;;;;;;;8.00;2.80;;;3.80;99.90;;;;;;5057240;28;20074;-64
2021/03/16 04:02:00;;;;;;;4.75;2.72;;;3.80;99.90;;;;;;5056730;28;20051;-64
2021/03/16 04:04:45;;;;;;;7.80;3.00;;;3.80;99.90;;;;;;5056454;28;20083;-64
2021/03/16 04:07:33;;;;;;;7.55;2.70;;;3.70;99.90;;;;;;5057815;28;20858;-64
2021/03/16 04:10:18;;;;;;;9.98;2.92;;;3.80;99.90;;;;;;5057019;28;20051;-64
2021/03/16 04:13:06;;;;;;;8.48;2.60;;;3.80;99.90;;;;;;5056929;28;20054;-64
2021/03/16 04:15:50;;;;;;;7.57;2.78;;;3.70;99.90;;;;;;5056717;28;20059;-64
2021/03/16 04:18:34;;;;;;;7.40;2.60;;;3.80;99.90;;;;;;5056709;28;20058;-65
2021/03/16 04:21:19;;;;;;;19.48;3.63;;;3.80;99.90;;;;;;5057152;28;20714;-65
2021/03/16 04:24:05;;;;;;;8.80;2.80;;;3.80;99.90;;;;;;5055509;28;20116;-64
2021/03/16 04:26:49;;;;;;;11.18;2.70;;;3.80;99.90;;;;;;5054726;28;20359;-62
2021/03/16 04:29:33;;;;;;;5.82;2.78;;;3.80;99.90;;;;;;5056083;28;20052;-63
2021/03/16 04:32:18;;;;;;;8.05;3.05;;;3.80;99.90;;;;;;5057901;28;20815;-63
2021/03/16 04:35:03;;;;;;;7.90;3.03;;;3.90;99.90;;;;;;5057301;28;20039;-64
2021/03/16 04:37:47;;;;;;;8.25;2.80;;;3.90;99.90;;;;;;5058830;28;20056;-64
2021/03/16 04:40:31;;;;;;;8.55;2.65;;;3.90;99.90;;;;;;5056444;28;20043;-64
2021/03/16 04:43:15;;;;;;;7.28;2.80;;;3.90;99.90;;;;;;5044941;28;20098;-64
2021/03/16 04:45:59;;;;;;;7.82;2.58;;;3.80;99.90;;;;;;5047864;28;20051;-64
2021/03/16 04:48:43;;;;;;;5.80;2.92;;;3.90;99.90;;;;;;5056915;28;20070;-64
2021/03/16 04:51:28;;;;;;;6.15;2.85;;;3.90;99.90;;;;;;5057190;28;20051;-64
2021/03/16 04:54:13;;;;;;;9.07;2.90;;;3.80;99.90;;;;;;5051231;28;20044;-65
2021/03/16 04:56:57;;;;;;;7.35;2.72;;;3.80;99.90;;;;;;5055148;28;20039;-66
2021/03/16 04:59:41;;;;;;;4.60;2.38;;;3.90;99.90;;;;;;5056080;28;20089;-64
2021/03/16 05:02:25;;;;;;;4.72;2.67;;;3.90;99.90;;;;;;5049570;28;20067;-65
2021/03/16 05:05:10;;;;;;;9.52;3.83;;;3.80;99.90;;;;;;5047484;28;20051;-65
2021/03/16 05:07:54;;;;;;;8.60;3.95;;;3.80;99.90;;;;;;5055175;28;20090;-65
2021/03/16 05:10:38;;;;;;;4.43;2.85;;;3.80;99.90;;;;;;5055878;28;20097;-65
2021/03/16 05:13:22;;;;;;;11.63;4.68;;;3.80;99.90;;;;;;5054808;28;20128;-65
2021/03/16 05:16:07;;;;;;;5.45;2.97;;;3.70;99.90;;;;;;5051205;28;20149;-63
2021/03/16 05:18:51;;;;;;;9.18;2.80;;;3.80;99.90;;;;;;5047082;28;20539;-63
2021/03/16 05:21:36;;;;;;;10.13;3.20;;;3.80;99.90;;;;;;5056555;28;20051;-65
2021/03/16 05:24:21;;;;;;;10.68;3.22;;;3.80;99.90;;;;;;5055893;28;20048;-64
2021/03/16 05:27:05;;;;;;;10.40;3.58;;;3.80;99.90;;;;;;5050727;28;20082;-63
2021/03/16 05:29:49;;;;;;;6.50;2.95;;;3.70;99.90;;;;;;5034005;28;20070;-64
2021/03/16 05:32:34;;;;;;;7.97;2.65;;;3.80;99.90;;;;;;5055037;28;20071;-64
2021/03/16 05:35:18;;;;;;;8.20;3.40;;;3.70;99.90;;;;;;5055988;28;20578;-65
2021/03/16 05:38:02;;;;;;;10.77;3.40;;;3.70;99.90;;;;;;5050589;28;20767;-64
2021/03/16 05:40:46;;;;;;;6.20;2.83;;;3.70;99.90;;;;;;5053876;28;20586;-64
2021/03/16 05:43:31;;;;;;;10.95;2.88;;;3.80;99.90;;;;;;5055020;28;20090;-65
2021/03/16 05:46:15;;;;;;;13.90;5.55;;;3.70;99.90;;;;;;5049686;28;20819;-65
2021/03/16 05:49:04;;;;;;;36.47;13.55;;;3.80;99.90;;;;;;5049492;28;20047;-65
2021/03/16 05:51:49;;;;;;;7.55;2.83;;;3.70;99.90;;;;;;5048289;28;20047;-64
2021/03/16 05:54:34;;;;;;;8.38;2.97;;;3.80;99.90;;;;;;5055257;28;20101;-64
2021/03/16 05:57:19;;;;;;;6.53;3.20;;;3.80;99.90;;;;;;5053746;28;20079;-64
2021/03/16 06:00:05;;;;;;;5.35;2.80;;;3.80;99.90;;;;;;5047154;28;20043;-64
2021/03/16 06:02:50;;;;;;;8.85;3.00;;;3.90;99.90;;;;;;5052499;28;20048;-64
2021/03/16 06:05:34;;;;;;;10.65;4.05;;;3.80;99.90;;;;;;5054583;28;20098;-64
2021/03/16 06:08:19;;;;;;;14.32;4.55;;;3.70;99.90;;;;;;5055097;28;20116;-64
2021/03/16 06:11:08;;;;;;;16.33;6.18;;;3.80;99.90;;;;;;5054420;28;20074;-64
2021/03/16 06:13:55;;;;;;;8.68;3.20;;;3.80;99.90;;;;;;5055003;28;20087;-64
2021/03/16 06:16:40;;;;;;;7.47;3.03;;;3.80;99.90;;;;;;5054064;28;20147;-64
2021/03/16 06:19:29;;;;;;;6.25;2.83;;;3.90;99.90;;;;;;5054736;28;20364;-64
2021/03/16 06:22:19;;;;;;;10.18;2.90;;;3.90;99.90;;;;;;5051138;28;20050;-64
2021/03/16 06:25:05;;;;;;;5.28;2.85;;;3.90;99.90;;;;;;5051312;28;20121;-64
2021/03/16 06:28:18;;;;;;;10.48;3.50;;;4.00;99.90;;;;;;5058002;28;20512;-65
2021/03/16 06:31:03;;;;;;;16.00;6.45;;;4.10;99.90;;;;;;5054534;28;20043;-65
2021/03/16 06:33:48;;;;;;;7.00;3.47;;;4.00;99.90;;;;;;5057392;28;20079;-65
2021/03/16 06:36:34;;;;;;;5.38;3.33;;;4.00;99.90;;;;;;5060108;28;20746;-65
2021/03/16 06:39:20;;;;;;;10.65;3.40;;;4.10;99.90;;;;;;5056940;28;20486;-65
2021/03/16 06:42:05;;;;;;;;;;;4.10;99.90;;;;;;5054955;28;20052;-65
2021/03/16 06:45:08;;;;;;;12.18;3.30;;;4.00;99.90;;;;;;5057685;28;20019;-65
2021/03/16 06:47:52;;;;;;;7.38;3.20;;;4.00;99.90;;;;;;5058630;28;20090;-65
2021/03/16 06:50:36;;;;;;;11.70;3.42;;;4.00;99.90;;;;;;5060695;28;21057;-65
2021/03/16 06:53:20;;;;;;;5.53;3.40;;;4.00;99.90;;;;;;5058607;28;20071;-65
2021/03/16 06:56:05;;;;;;;7.07;3.22;;;4.20;99.90;;;;;;5052413;28;20043;-65
2021/03/16 06:58:49;;;;;;;7.97;3.83;;;4.10;99.90;;;;;;5056789;28;20040;-65
2021/03/16 07:01:34;;;;;;;9.88;3.72;;;4.10;99.90;;;;;;5056737;28;20048;-64
2021/03/16 07:04:20;;;;;;;;;;;4.20;99.90;;;;;;5057722;28;20128;-64
2021/03/16 07:07:05;;;;;;;9.63;3.65;;;4.20;99.90;;;;;;5052237;28;20425;-64
2021/03/16 07:09:51;;;;;;;9.70;3.42;;;4.20;99.90;;;;;;5056222;28;20806;-64
2021/03/16 07:12:36;;;;;;;9.30;4.03;;;4.20;99.90;;;;;;5057405;28;21093;-64
2021/03/16 07:15:22;;;;;;;7.65;3.30;;;4.30;99.90;;;;;;5057757;28;20048;-64
2021/03/16 07:18:10;;;;;;;14.32;3.42;;;4.20;99.90;;;;;;5054065;28;20140;-64
2021/03/16 07:21:02;;;;;;;14.50;3.72;;;4.20;99.90;;;;;;5058771;28;20055;-64
2021/03/16 07:23:56;;;;;;;9.43;2.97;;;4.20;99.90;;;;;;5056807;28;20086;-64
2021/03/16 07:26:41;;;;;;;7.93;3.00;;;4.20;99.90;;;;;;5055695;28;20093;-64
2021/03/16 07:29:25;;;;;;;19.33;8.38;;;4.20;99.90;;;;;;5058725;28;20048;-65
2021/03/16 07:32:11;;;;;;;9.50;3.30;;;4.10;99.90;;;;;;5048400;28;20059;-64
2021/03/16 07:35:00;;;;;;;10.30;3.17;;;4.00;99.90;;;;;;5057915;28;20038;-64
2021/03/16 07:37:45;;;;;;;9.55;3.10;;;4.00;99.90;;;;;;5055831;28;20083;-64
2021/03/16 07:40:29;;;;;;;6.23;3.17;;;4.10;99.90;;;;;;5057854;28;20090;-64
2021/03/16 07:43:14;;;;;;;6.95;3.38;;;4.10;99.90;;;;;;5054075;28;20420;-64
2021/03/16 07:46:15;;;;;;;10.00;2.80;;;4.20;99.90;;;;;;5055243;28;20043;-64
2021/03/16 07:48:59;;;;;;;12.60;3.03;;;4.20;99.90;;;;;;5057904;28;20538;-64
2021/03/16 07:51:44;;;;;;;10.10;2.80;;;4.30;99.90;;;;;;5056133;28;20086;-64
2021/03/16 07:54:36;;;;;;;7.95;2.47;;;4.30;99.90;;;;;;5056716;28;20075;-64
2021/03/16 07:57:30;;;;;;;6.03;2.30;;;4.30;99.90;;;;;;5057824;28;21058;-64
2021/03/16 08:00:15;;;;;;;7.10;2.47;;;4.40;99.90;;;;;;5053308;28;20137;-65
2021/03/16 08:03:01;;;;;;;3.17;2.15;;;4.50;99.90;;;;;;5051460;28;20056;-64
2021/03/16 08:05:45;;;;;;;10.05;2.45;;;4.60;99.90;;;;;;5056195;28;20048;-64
2021/03/16 08:08:40;;;;;;;8.52;2.60;;;4.70;99.90;;;;;;5056370;28;20047;-64
2021/03/16 08:11:39;;;;;;;6.82;2.97;;;4.70;99.90;;;;;;5054664;28;20136;-64
2021/03/16 08:14:28;;;;;;;10.13;2.45;;;4.60;99.90;;;;;;5056124;28;20126;-65
2021/03/16 08:17:24;;;;;;;6.70;2.63;;;4.70;99.90;;;;;;5051729;28;20889;-64
2021/03/16 08:20:09;;;;;;;6.50;2.45;;;4.90;99.90;;;;;;5051816;28;20043;-65
2021/03/16 08:23:09;;;;;;;6.10;2.30;;;5.10;99.90;;;;;;5052616;28;21003;-64
2021/03/16 08:25:53;;;;;;;7.90;2.45;;;5.20;99.90;;;;;;5054115;28;20047;-64
2021/03/16 08:28:46;;;;;;;6.65;2.50;;;5.10;99.90;;;;;;5056499;28;20051;-64
2021/03/16 08:31:33;;;;;;;6.63;2.10;;;5.20;99.90;;;;;;5056884;28;20071;-67
2021/03/16 08:34:20;;;;;;;6.80;2.47;;;5.30;99.90;;;;;;5056270;28;20218;-64
2021/03/16 08:37:04;;;;;;;11.10;2.85;;;5.30;99.90;;;;;;5053059;28;20683;-64
2021/03/16 08:39:50;;;;;;;4.97;1.77;;;5.30;99.90;;;;;;5050187;28;20079;-64
2021/03/16 08:42:34;;;;;;;10.70;2.17;;;5.50;99.90;;;;;;5039868;28;20052;-66
2021/03/16 08:45:30;;;;;;;2.95;1.85;;;5.50;99.90;;;;;;5055179;28;20062;-66
2021/03/16 08:48:30;;;;;;;9.38;2.33;;;5.60;99.90;;;;;;5049346;28;20055;-65
2021/03/16 08:51:25;;;;;;;5.78;2.70;;;5.80;99.90;;;;;;5054091;28;20561;-66
2021/03/16 08:54:10;;;;;;;9.98;2.45;;;5.90;99.90;;;;;;5055953;28;20054;-65
2021/03/16 08:56:54;;;;;;;6.78;2.45;;;6.20;99.90;;;;;;5055017;28;20097;-65
2021/03/16 08:59:38;;;;;;;5.18;2.30;;;6.60;99.90;;;;;;5045547;28;20870;-65
2021/03/16 09:02:27;;;;;;;5.75;2.10;;;6.80;99.90;;;;;;5057653;28;20114;-66
2021/03/16 09:05:20;;;;;;;7.55;3.30;;;7.10;99.90;;;;;;5046987;28;20055;-66
2021/03/16 09:08:05;;;;;;;6.43;2.20;;;7.10;99.90;;;;;;5050320;28;20106;-66
2021/03/16 09:10:49;;;;;;;5.40;2.22;;;7.20;99.90;;;;;;5051948;28;20440;-67
2021/03/16 09:13:33;;;;;;;5.72;1.75;;;7.40;99.90;;;;;;5054644;28;20055;-67
2021/03/16 09:16:22;;;;;;;15.90;2.83;;;7.60;99.90;;;;;;5054220;28;20603;-67
2021/03/16 09:19:08;;;;;;;8.82;2.22;;;7.60;99.90;;;;;;5050744;28;20223;-65
2021/03/16 09:21:55;;;;;;;4.47;1.83;;;7.50;99.90;;;;;;5054859;28;20052;-67
2021/03/16 09:24:44;;;;;;;2.95;1.52;;;7.70;99.90;;;;;;5055548;28;20075;-65
2021/03/16 09:27:29;;;;;;;6.95;1.73;;;7.60;99.90;;;;;;5055138;28;20907;-66
2021/03/16 09:30:15;;;;;;;5.85;2.33;;;7.80;99.90;;;;;;5055975;28;20139;-67
2021/03/16 09:33:00;;;;;;;4.03;1.65;;;7.90;99.90;;;;;;5049447;28;20047;-66
2021/03/16 09:35:53;;;;;;;6.00;2.42;;;8.00;99.90;;;;;;5045599;28;20151;-66
2021/03/16 09:38:56;;;;;;;3.97;1.60;;;8.30;99.90;;;;;;5018164;28;20139;-66
2021/03/16 09:41:52;;;;;;;5.43;1.67;;;8.10;99.90;;;;;;5054587;28;20040;-66
2021/03/16 09:44:32;;;;;;;4.00;1.50;;;8.10;99.90;;;;;;5036414;28;20593;-66
2021/03/16 09:46:58;;;;;;;4.55;1.60;;;8.00;99.90;;;;;;5029809;28;20037;-66
2021/03/16 09:49:32;;;;;;;3.78;1.65;;;7.90;99.90;;;;;;5046524;28;20071;-66
2021/03/16 09:52:10;;;;;;;4.75;1.88;;;7.90;99.90;;;;;;5054830;28;20037;-66
2021/03/16 09:54:46;;;;;;;2.72;1.45;;;7.90;99.90;;;;;;5054567;28;20079;-66
2021/03/16 09:57:16;;;;;;;5.88;1.60;;;8.30;99.90;;;;;;5051280;28;20821;-66
2021/03/16 09:59:44;;;;;;;4.90;1.80;;;8.70;99.90;;;;;;5047790;28;20493;-66
2021/03/16 10:02:11;;;;;;;8.18;3.45;;;8.70;99.90;;;;;;5053580;28;20585;-66
2021/03/16 10:05:04;;;;;;;3.72;1.40;;;8.60;99.90;;;;;;5059301;28;20044;-66
2021/03/16 10:07:31;;;;;;;4.75;1.77;;;8.70;99.90;;;;;;5032652;28;20056;-66
2021/03/16 10:10:13;;;;;;;4.07;1.60;;;8.70;99.90;;;;;;5059329;28;20301;-66
2021/03/16 10:12:48;;;;;;;4.47;1.58;;;8.70;99.90;;;;;;5059119;28;20332;-66
2021/03/16 10:15:24;;;;;;;5.47;2.03;;;8.60;99.90;;;;;;5058257;28;20040;-66
2021/03/16 10:17:50;;;;;;;;;;;8.80;99.90;;;;;;5041546;28;20028;-66
2021/03/16 10:20:21;;;;;;;3.60;1.90;;;9.20;99.90;;;;;;5059618;28;20709;-66
2021/03/16 10:23:01;;;;;;;6.97;2.05;;;9.40;98.60;;;;;;5057597;28;20024;-66
2021/03/16 10:25:31;;;;;;;5.45;1.70;;;9.60;98.20;;;;;;5059034;28;20859;-66
2021/03/16 10:28:02;;;;;;;4.97;1.65;;;9.60;98.30;;;;;;5058823;28;20530;-66
2021/03/16 10:30:33;;;;;;;3.50;1.75;;;9.70;97.90;;;;;;5057609;28;20044;-66
2021/03/16 10:33:00;;;;;;;2.25;1.48;;;9.80;96.90;;;;;;5052884;28;20035;-66
2021/03/16 10:35:26;;;;;;;6.97;1.67;;;9.80;98.00;;;;;;5058841;28;20571;-66
2021/03/16 10:37:53;;;;;;;4.82;2.03;;;10.00;96.80;;;;;;5058144;28;20097;-66
2021/03/16 10:40:19;;;;;;;8.38;2.50;;;9.70;97.30;;;;;;5058634;28;20132;-67
2021/03/16 10:42:44;;;;;;;7.28;2.90;;;9.60;99.70;;;;;;5040719;28;20040;-67
2021/03/16 10:45:10;;;;;;;7.28;3.55;;;9.80;99.90;;;;;;5057004;28;20056;-66
2021/03/16 10:47:36;;;;;;;9.80;4.25;;;9.40;99.90;;;;;;5057342;28;20153;-66
2021/03/16 10:50:03;;;;;;;9.57;3.63;;;8.80;99.90;;;;;;5053051;28;20041;-65
2021/03/16 10:52:28;;;;;;;9.50;3.45;;;8.70;99.90;;;;;;5041424;28;20074;-74
2021/03/16 10:54:54;;;;;;;7.60;3.25;;;9.00;99.90;;;;;;5056710;28;20021;-74
2021/03/16 10:57:20;;;;;;;6.35;2.90;;;9.30;99.90;;;;;;5043926;28;20063;-73
2021/03/16 10:59:45;;;;;;;8.50;3.80;;;9.20;99.20;;;;;;5058967;28;20036;-66
2021/03/16 11:02:11;;;;;;;9.07;3.67;;;8.90;99.90;;;;;;5041380;28;20540;-67
2021/03/16 11:04:37;;;;;;;8.20;3.90;;;8.80;99.90;;;;;;5042185;28;20040;-67
2021/03/16 11:07:03;;;;;;;11.30;4.88;;;8.90;99.90;;;;;;5059066;28;20025;-67
2021/03/16 11:09:28;;;;;;;11.07;4.78;;;8.90;99.90;;;;;;5054786;28;20033;-67
2021/03/16 11:11:54;;;;;;;7.25;4.30;;;8.80;99.90;;;;;;5057148;28;20067;-66
2021/03/16 11:14:20;;;;;;;14.52;5.10;;;8.50;99.90;;;;;;5057106;28;20689;-66
2021/03/16 11:16:46;;;;;;;13.63;6.05;;;8.20;99.90;;;;;;5059545;28;20039;-66
2021/03/16 11:19:11;;;;;;;9.73;4.82;;;8.20;99.90;;;;;;5058336;28;20056;-65
2021/03/16 11:21:37;;;;;;;11.40;4.78;;;8.20;99.90;;;;;;5056889;28;20700;-66
2021/03/16 11:24:03;;;;;;;10.38;4.85;;;8.40;99.90;;;;;;5047401;28;20033;-66
2021/03/16 11:26:29;;;;;;;14.07;4.88;;;8.50;99.90;;;;;;5052941;28;20044;-66
2021/03/16 11:28:55;;;;;;;12.40;4.93;;;8.40;99.90;;;;;;5056198;28;20044;-66
2021/03/16 11:31:20;;;;;;;12.55;5.13;;;8.70;99.90;;;;;;5057376;28;20028;-66
2021/03/16 11:34:05;;;;;;;10.95;5.05;;;8.80;99.90;;;;;;5056860;28;20716;-67
2021/03/16 11:36:49;;;;;;;13.38;4.30;;;8.70;99.90;;;;;;5053275;28;20071;-67
2021/03/16 11:39:34;;;;;;;8.98;4.03;;;8.50;99.90;;;;;;5057580;28;20078;-66
2021/03/16 11:42:18;;;;;;;11.95;4.05;;;8.60;99.90;;;;;;5054879;28;20043;-67
2021/03/16 11:45:03;;;;;;;9.85;4.00;;;8.60;99.90;;;;;;5057560;28;20047;-66
2021/03/16 11:47:48;;;;;;;10.20;4.15;;;8.70;99.90;;;;;;5058534;28;20051;-67
2021/03/16 11:50:32;;;;;;;11.95;3.50;;;8.80;99.90;;;;;;5058399;28;20167;-67
2021/03/16 11:53:31;;;;;;;6.78;3.40;;;9.00;99.90;;;;;;5058864;28;20105;-71
2021/03/16 11:56:18;;;;;;;10.88;3.83;;;9.10;99.90;;;;;;5054407;28;20039;-73
2021/03/16 11:59:03;;;;;;;6.93;3.75;;;9.30;99.90;;;;;;5052462;28;20174;-65
2021/03/16 12:01:48;;;;;;;11.48;3.45;;;9.40;98.80;;;;;;5051202;28;20042;-65
2021/03/16 12:04:32;;;;;;;10.20;3.60;;;9.20;97.80;;;;;;5057448;28;20848;-66
2021/03/16 12:07:17;;;;;;;8.83;2.97;;;9.10;99.00;;;;;;5052464;28;20039;-64
2021/03/16 12:10:01;;;;;;;7.45;2.83;;;9.50;98.40;;;;;;5057233;28;20086;-64
2021/03/16 12:12:45;;;;;;;5.38;2.83;;;9.50;97.90;;;;;;5037390;28;20097;-64
2021/03/16 12:15:29;;;;;;;7.53;2.92;;;9.30;98.70;;;;;;5048696;28;20055;-63
2021/03/16 12:18:13;;;;;;;7.95;2.88;;;9.40;97.80;;;;;;5052713;28;20070;-64
2021/03/16 12:20:58;;;;;;;6.82;2.60;;;9.40;96.20;;;;;;5057195;28;20703;-67
2021/03/16 12:23:42;;;;;;;8.35;2.72;;;9.40;95.40;;;;;;5050822;28;20426;-66
2021/03/16 12:26:26;;;;;;;9.48;3.10;;;8.90;97.20;;;;;;5054481;28;20055;-67
2021/03/16 12:29:11;;;;;;;6.28;3.08;;;8.60;98.40;;;;;;5050862;28;20123;-67
2021/03/16 12:31:56;;;;;;;9.73;2.90;;;8.60;99.20;;;;;;5054213;28;20151;-64
2021/03/16 12:34:41;;;;;;;12.02;3.30;;;8.60;99.60;;;;;;5055889;28;20094;-64
2021/03/16 12:37:25;;;;;;;7.40;3.22;;;8.70;99.50;;;;;;5056629;28;20055;-67
2021/03/16 12:40:11;;;;;;;13.20;3.40;;;8.80;97.60;;;;;;5052401;28;20121;-67
2021/03/16 12:42:55;;;;;;;7.75;3.10;;;8.80;98.70;;;;;;5048986;28;20109;-66
2021/03/16 12:45:42;;;;;;;6.78;3.30;;;8.90;99.10;;;;;;5055860;28;20709;-67
2021/03/16 12:48:26;;;;;;;7.25;3.13;;;9.50;97.30;;;;;;5039665;28;20101;-67
2021/03/16 12:51:10;;;;;;;9.63;3.30;;;9.50;95.90;;;;;;5044606;28;20605;-67
2021/03/16 12:53:54;;;;;;;10.80;3.20;;;9.40;97.10;;;;;;5056244;28;20721;-67
2021/03/16 12:56:38;;;;;;;10.32;3.60;;;9.10;96.50;;;;;;5054721;28;20083;-67
2021/03/16 12:59:22;;;;;;;9.88;3.17;;;10.00;97.10;;;;;;5055872;28;20110;-65
2021/03/16 13:02:07;;;;;;;8.35;2.78;;;10.70;92.70;;;;;;5055770;28;20210;-65
2021/03/16 13:04:52;;;;;;;10.55;3.05;;;10.90;90.30;;;;;;5048811;28;20104;-65
2021/03/16 13:07:36;;;;;;;11.88;3.42;;;10.70;91.70;;;;;;5055714;28;20134;-64
2021/03/16 13:10:20;;;;;;;9.32;3.30;;;10.10;93.10;;;;;;5055876;28;20095;-64
2021/03/16 13:13:05;;;;;;;7.05;2.40;;;9.70;93.40;;;;;;5049126;28;20134;-65
2021/03/16 13:15:49;;;;;;;6.68;2.83;;;9.40;94.50;;;;;;5052380;28;20128;-64
2021/03/16 13:18:33;;;;;;;7.80;2.88;;;9.30;94.60;;;;;;5054962;28;20149;-67
2021/03/16 13:21:17;;;;;;;11.10;2.78;;;9.60;96.60;;;;;;5052354;28;20097;-64
2021/03/16 13:24:02;;;;;;;6.85;2.40;;;10.80;93.00;;;;;;5055611;28;20094;-65
2021/03/16 13:26:46;;;;;;;5.53;2.83;;;11.60;91.50;;;;;;5055031;28;20539;-63
2021/03/16 13:29:31;;;;;;;5.35;1.90;;;12.30;84.00;;;;;;5057814;28;20151;-65
2021/03/16 13:32:15;;;;;;;8.20;2.15;;;12.70;77.20;;;;;;5057318;28;20055;-65
2021/03/16 13:34:59;;;;;;;6.28;1.92;;;13.20;74.80;;;;;;5057034;28;20039;-65
2021/03/16 13:37:43;;;;;;;6.20;2.03;;;13.10;71.10;;;;;;5058211;28;20097;-65
2021/03/16 13:40:27;;;;;;;6.03;1.83;;;12.50;72.00;;;;;;5051904;28;20114;-64
2021/03/16 13:43:11;;;;;;;5.93;1.85;;;11.80;72.40;;;;;;5059417;28;20463;-65
2021/03/16 13:45:56;;;;;;;4.30;1.73;;;11.50;76.50;;;;;;5058439;28;20572;-64
2021/03/16 13:48:40;;;;;;;6.55;1.77;;;11.20;78.90;;;;;;5043676;28;20050;-64
2021/03/16 13:51:24;;;;;;;13.95;2.10;;;11.20;78.50;;;;;;5053158;28;20531;-64
2021/03/16 13:54:08;;;;;;;6.65;1.50;;;11.40;76.90;;;;;;5055312;28;20048;-67
2021/03/16 13:56:53;;;;;;;4.15;1.33;;;12.40;75.40;;;;;;5058735;28;20167;-64
2021/03/16 13:59:37;;;;;;;8.30;1.75;;;13.30;71.00;;;;;;5059789;28;20515;-64
2021/03/16 14:02:21;;;;;;;3.47;1.40;;;13.40;65.60;;;;;;5058985;28;20043;-64
2021/03/16 14:05:06;;;;;;;5.10;1.63;;;12.80;68.70;;;;;;5048400;28;20055;-64
2021/03/16 14:07:50;;;;;;;5.18;1.20;;;12.20;68.90;;;;;;5057763;28;20051;-64